Nearby METAR Reports

Aktualna pogoda na lotniskach (dane METAR)

 

EPGD - Gdansk/Rebiechow, Poland
Distance from station: ENE 27mi, 44km
Updated: Wed, 26-Jan-2022 6:00am PST
Light rain, Mostly cloudy
Light rain, Mostly cloudy
 Wind from W
Wind: W 22 mph , 35 km/h, Gust: 35 mph , 56 km/h
Temperature: 37°F , 3°C
Wind Chill: 26°F , -3°C
Dew Point: 36°F , 2°C
Humidity: 93%
Barometer: 30 inHg , 1016 hPa
Summary: Light Rain
Clouds: Mostly Cloudy
Visibility: 6 miles , 10 km
Cloud details: Few Clouds 600 ft
Partly Cloudy 900 ft
Mostly Cloudy 1200 ft
2022/01/26 14:00 EPGD 261400Z 27019G30KT 9999 -RA FEW006 SCT009 BKN012 03/02 Q1016
EPSC - Szczecin/Golenio, Poland
Distance from station: WSW 128mi, 205km
Updated: Wed, 26-Jan-2022 6:00am PST
Overcast
Overcast
 Wind from WSW
Wind: WSW 12 mph , 19 km/h
Temperature: 37°F , 3°C
Wind Chill: 29°F , -2°C
Dew Point: 36°F , 2°C
Humidity: 93%
Barometer: 30.18 inHg , 1022 hPa
Clouds: Overcast
Visibility: 6 miles , 10 km
Cloud details: Few Clouds 800 ft
Mostly Cloudy 900 ft
Overcast 1100 ft
2022/01/26 14:00 EPSC 261400Z 25010KT 220V280 9999 FEW008 BKN009 OVC011 03/02 Q1022
 
EPPO - Poznan/Lawica, Poland
Distance from station: SSW 131mi, 210km
Updated: Wed, 26-Jan-2022 6:00am PST
Overcast
Overcast
 Wind from W
Wind: W 14 mph , 22 km/h
Temperature: 37°F , 3°C
Wind Chill: 28°F , -2°C
Dew Point: 36°F , 2°C
Humidity: 93%
Barometer: 30.21 inHg , 1023 hPa
Clouds: Overcast
Visibility: 6 miles , 10 km
Cloud details: Overcast 600 ft
2022/01/26 14:00 EPPO 261400Z 27012KT 9999 OVC006 03/02 Q1023
EPLL - Lodz/Lublinek, Poland
Distance from station: SSE 184mi, 296km
Updated: Wed, 26-Jan-2022 6:00am PST
Light drizzle, Mist, Overcast
Light drizzle, Mist, Overcast
 Wind from W
Wind: W 15 mph , 24 km/h
Temperature: 37°F , 3°C
Wind Chill: 28°F , -2°C
Dew Point: 36°F , 2°C
Humidity: 93%
Barometer: 30.18 inHg , 1022 hPa
Summary: Light drizzle, Mist
Clouds: Overcast
Visibility: 3 miles , 5 km
Cloud details: Overcast 200 ft
2022/01/26 14:00 EPLL 261400Z 27013KT 5000 -DZ BR OVC002 03/02 Q1022
 
EPWA - Warsaw/Okecie, Poland
Distance from station: SE 191mi, 307km
Updated: Wed, 26-Jan-2022 6:00am PST
Light rain, Mostly cloudy
Light rain, Mostly cloudy
 Wind from W
Wind: W 8 mph , 13 km/h
Temperature: 36°F , 2°C
Wind Chill: 30°F , -1°C
Dew Point: 36°F , 2°C
Humidity: 100%
Barometer: 30.12 inHg , 1020 hPa
Summary: Light Rain
Clouds: Mostly Cloudy
Visibility: 6 miles , 9 km
Cloud details: Mostly Cloudy 600 ft
2022/01/26 14:00 EPWA 261400Z 27007KT 9000 -RA BKN006 02/02 Q1020 NOSIG
EPWR - Wroclaw/Strachow, Poland
Distance from station: S 219mi, 352km
Updated: Wed, 26-Jan-2022 6:00am PST
Light rain, Mostly cloudy
Light rain, Mostly cloudy
 Wind from WNW
Wind: WNW 15 mph , 24 km/h
Temperature: 37°F , 3°C
Wind Chill: 28°F , -2°C
Dew Point: 34°F , 1°C
Humidity: 87%
Barometer: 30.3 inHg , 1026 hPa
Summary: Light Rain
Clouds: Mostly Cloudy
Visibility: 6 miles , 10 km
Cloud details: Partly Cloudy 1100 ft
Mostly Cloudy 1400 ft
2022/01/26 14:00 EPWR 261400Z 29013KT 9999 -RA SCT011 BKN014 03/01 Q1026

Metar display script from Saratoga-Weather.org